Time;durP1;ratioP1;P1;durP2;ratioP2;P2;SDS_P1;SDS_P2;PMS_P1;PMS_P2;Temp;Humidity;BMP_temperature;BMP_pressure;BME280_temperature;BME280_humidity;BME280_pressure;Samples;Min_cycle;Max_cycle;Signal;HPM_P1;HPM_P2
2023/03/03 00:01:19;;;;;;;51.17;25.27;;;;;;;-0.24;100.00;102387.59;5092369;28;20100;-77
2023/03/03 00:03:44;;;;;;;52.05;26.23;;;;;;;-0.33;100.00;102382.03;5082521;28;20040;-77
2023/03/03 00:06:12;;;;;;;53.22;28.17;;;;;;;-0.30;100.00;102398.44;5088998;28;20027;-77
2023/03/03 00:08:38;;;;;;;53.78;27.17;;;;;;;-0.31;100.00;102390.69;5092069;28;20035;-77
2023/03/03 00:11:05;;;;;;;56.10;27.83;;;;;;;-0.38;100.00;102373.28;5089139;28;20024;-77
2023/03/03 00:13:32;;;;;;;51.05;26.27;;;;;;;-0.34;100.00;102396.53;5092473;28;20391;-77
2023/03/03 00:16:12;;;;;;;51.65;26.05;;;;;;;-0.33;100.00;102397.41;5093712;28;20028;-77
2023/03/03 00:18:42;;;;;;;59.30;28.50;;;;;;;-0.29;100.00;102395.09;5096007;28;20059;-77
2023/03/03 00:21:24;;;;;;;56.45;28.73;;;;;;;-0.29;100.00;102392.53;5084521;28;20028;-77
2023/03/03 00:23:50;;;;;;;58.72;28.10;;;;;;;-0.28;100.00;102399.38;5096544;28;20017;-77
2023/03/03 00:26:29;;;;;;;56.40;28.45;;;;;;;-0.20;100.00;102399.72;5095740;28;20103;-77
2023/03/03 00:28:55;;;;;;;56.80;28.48;;;;;;;-0.18;100.00;102405.81;5096452;28;20111;-77
2023/03/03 00:31:32;;;;;;;60.95;28.92;;;;;;;-0.16;100.00;102405.91;5096049;28;20522;-77
2023/03/03 00:34:18;;;;;;;57.22;28.52;;;;;;;-0.08;100.00;102417.38;5081333;28;20024;-77
2023/03/03 00:36:45;;;;;;;61.95;29.58;;;;;;;-0.06;100.00;102401.25;5095689;28;20114;-77
2023/03/03 00:39:37;;;;;;;53.17;27.17;;;;;;;0.07;100.00;102410.38;5080933;28;20375;-77
2023/03/03 00:42:13;;;;;;;58.35;26.73;;;;;;;0.12;100.00;102408.88;5094597;28;20051;-77
2023/03/03 00:44:46;;;;;;;54.85;27.23;;;;;;;0.19;100.00;102410.88;5073238;28;20051;-77
2023/03/03 00:47:29;;;;;;;50.28;24.70;;;;;;;0.21;100.00;102404.16;5095184;28;20028;-77
2023/03/03 00:50:24;;;;;;;49.38;23.65;;;;;;;0.31;100.00;102422.50;5095727;28;20032;-77
2023/03/03 00:53:05;;;;;;;50.22;23.88;;;;;;;0.35;100.00;102422.69;5092388;28;20103;-77
2023/03/03 00:55:33;;;;;;;46.72;23.58;;;;;;;0.34;100.00;102415.81;5080126;28;20089;-77
2023/03/03 00:57:59;;;;;;;45.65;23.15;;;;;;;0.31;100.00;102402.88;5095683;28;20077;-77
2023/03/03 01:00:24;;;;;;;47.10;24.10;;;;;;;0.37;100.00;102423.66;5086578;28;20032;-76
2023/03/03 01:02:50;;;;;;;45.78;22.98;;;;;;;0.31;100.00;102391.72;5084813;28;20107;-77
2023/03/03 01:05:17;;;;;;;47.13;23.85;;;;;;;0.36;100.00;102409.09;5077904;28;20036;-76
2023/03/03 01:07:42;;;;;;;46.08;23.13;;;;;;;0.37;100.00;102410.81;5080988;28;20040;-77
2023/03/03 01:10:08;;;;;;;43.83;22.63;;;;;;;0.36;100.00;102416.78;5088302;28;20024;-77
2023/03/03 01:12:34;;;;;;;43.10;22.92;;;;;;;0.36;100.00;102419.34;5079271;28;20068;-77
2023/03/03 01:14:59;;;;;;;45.28;23.73;;;;;;;0.35;100.00;102421.81;5075524;28;20029;-77
2023/03/03 01:17:25;;;;;;;44.88;23.13;;;;;;;0.37;100.00;102423.66;5084844;28;20463;-77
2023/03/03 01:19:50;;;;;;;44.63;22.98;;;;;;;0.41;100.00;102419.53;5080905;28;20023;-77
2023/03/03 01:22:15;;;;;;;47.38;23.48;;;;;;;0.41;100.00;102427.22;5095130;28;20024;-77
2023/03/03 01:24:40;;;;;;;43.45;22.88;;;;;;;0.41;100.00;102424.66;5085137;28;20103;-77
2023/03/03 01:27:06;;;;;;;46.88;22.15;;;;;;;0.42;100.00;102434.09;5095133;28;20401;-77
2023/03/03 01:29:31;;;;;;;42.10;22.50;;;;;;;0.46;100.00;102425.75;5092334;28;20028;-77
2023/03/03 01:31:56;;;;;;;45.13;22.15;;;;;;;0.45;100.00;102439.38;5093016;28;20028;-76
2023/03/03 01:34:23;;;;;;;45.15;23.52;;;;;;;0.43;100.00;102417.91;5083419;28;20035;-77
2023/03/03 01:36:49;;;;;;;45.53;22.70;;;;;;;0.46;100.00;102425.75;5082735;28;20047;-77
2023/03/03 01:39:14;;;;;;;47.53;23.05;;;;;;;0.48;100.00;102424.09;5095112;28;20462;-77
2023/03/03 01:41:40;;;;;;;43.72;22.98;;;;;;;0.47;100.00;102424.94;5094748;28;20479;-77
2023/03/03 01:44:06;;;;;;;42.30;22.13;;;;;;;0.49;100.00;102431.03;5094245;28;20478;-77
2023/03/03 01:46:40;;;;;;;41.38;21.55;;;;;;;0.56;100.00;102435.59;5088733;28;20032;-77
2023/03/03 01:49:12;;;;;;;43.60;22.80;;;;;;;0.49;100.00;102436.16;5094300;28;20372;-77
2023/03/03 01:51:45;;;;;;;43.70;23.33;;;;;;;0.42;100.00;102434.97;5094563;28;20024;-77
2023/03/03 01:54:20;;;;;;;45.10;21.85;;;;;;;0.36;100.00;102434.75;5091277;28;20025;-77
2023/03/03 01:56:47;;;;;;;42.28;21.67;;;;;;;0.33;100.00;102429.47;5084303;28;20027;-77
2023/03/03 01:59:18;;;;;;;43.35;21.45;;;;;;;0.30;100.00;102413.06;5094275;28;20400;-77
2023/03/03 02:01:46;;;;;;;42.90;22.38;;;;;;;0.29;100.00;102431.81;5085180;28;20032;-77
2023/03/03 02:04:11;;;;;;;43.13;21.25;;;;;;;0.25;100.00;102422.25;5087525;28;20020;-77
2023/03/03 02:06:40;;;;;;;41.55;21.63;;;;;;;0.14;100.00;102401.25;5081419;28;20493;-77
2023/03/03 02:09:31;;;;;;;44.47;22.92;;;;;;;0.27;100.00;102436.03;5094390;28;20032;-77
2023/03/03 02:12:00;;;;;;;43.30;21.63;;;;;;;0.17;100.00;102421.91;5072837;28;20024;-77
2023/03/03 02:14:25;;;;;;;45.25;21.95;;;;;;;0.18;100.00;102427.09;5085770;28;20094;-77
2023/03/03 02:16:51;;;;;;;41.63;21.42;;;;;;;0.10;100.00;102430.13;5094164;28;20467;-78
2023/03/03 02:19:27;;;;;;;44.03;22.77;;;;;;;0.14;100.00;102439.72;5085252;28;20464;-77
2023/03/03 02:21:53;;;;;;;45.22;22.05;;;;;;;0.13;100.00;102433.72;5072991;28;20039;-77
2023/03/03 02:24:43;;;;;;;39.60;20.95;;;;;;;0.13;100.00;102443.06;5080885;28;20037;-77
2023/03/03 02:27:08;;;;;;;41.45;21.20;;;;;;;0.03;100.00;102423.84;5063487;28;20028;-77
2023/03/03 02:29:34;;;;;;;43.35;21.95;;;;;;;-0.02;100.00;102425.34;5077907;28;20030;-77
2023/03/03 02:31:59;;;;;;;44.22;21.90;;;;;;;-0.01;100.00;102429.66;5087132;28;20032;-77
2023/03/03 02:34:25;;;;;;;41.55;21.15;;;;;;;-0.10;100.00;102427.56;5074166;28;20105;-77
2023/03/03 02:36:50;;;;;;;41.00;21.60;;;;;;;-0.04;100.00;102439.75;5072883;28;20028;-77
2023/03/03 02:39:20;;;;;;;41.65;21.65;;;;;;;-0.09;100.00;102438.69;5074768;28;20082;-77
2023/03/03 02:41:52;;;;;;;43.75;22.67;;;;;;;-0.11;100.00;102432.59;5086043;28;20379;-77
2023/03/03 02:44:20;;;;;;;43.20;21.98;;;;;;;-0.09;100.00;102438.69;5081411;28;20104;-77
2023/03/03 02:46:47;;;;;;;43.72;21.08;;;;;;;-0.11;100.00;102435.16;5086506;28;20197;-77
2023/03/03 02:49:17;;;;;;;46.10;21.13;;;;;;;-0.14;100.00;102435.03;5084558;28;20024;-77
2023/03/03 02:51:42;;;;;;;43.15;21.58;;;;;;;-0.15;100.00;102428.16;5090061;28;20464;-77
2023/03/03 02:54:09;;;;;;;44.45;21.52;;;;;;;-0.13;100.00;102430.00;5081311;28;20031;-77
2023/03/03 02:56:35;;;;;;;45.20;22.23;;;;;;;-0.06;100.00;102444.84;5080818;28;20111;-77
2023/03/03 02:59:00;;;;;;;40.95;20.05;;;;;;;-0.07;100.00;102442.19;5093349;28;20115;-77
2023/03/03 03:01:25;;;;;;;43.13;20.00;;;;;;;-0.09;100.00;102442.13;5092866;28;20050;-77
2023/03/03 03:03:51;;;;;;;43.83;22.85;;;;;;;-0.13;100.00;102436.78;5092843;28;20044;-77
2023/03/03 03:06:16;;;;;;;42.45;21.52;;;;;;;-0.21;100.00;102427.88;5093259;28;20020;-77
2023/03/03 03:08:45;;;;;;;43.40;21.13;;;;;;;-0.16;100.00;102450.34;5089820;28;20028;-77
2023/03/03 03:11:10;;;;;;;43.35;21.77;;;;;;;-0.16;100.00;102444.34;5081109;28;20016;-77
2023/03/03 03:13:35;;;;;;;46.67;20.90;;;;;;;-0.17;100.00;102432.31;5092348;28;20042;-77
2023/03/03 03:16:01;;;;;;;42.45;20.67;;;;;;;-0.14;100.00;102445.28;5093135;28;20122;-77
2023/03/03 03:18:26;;;;;;;38.85;19.00;;;;;;;-0.24;100.00;102420.91;5093210;28;20440;-77
2023/03/03 03:20:52;;;;;;;42.40;20.25;;;;;;;-0.19;100.00;102442.53;5092770;28;20031;-77
2023/03/03 03:23:20;;;;;;;37.95;19.88;;;;;;;-0.17;100.00;102448.56;5093062;28;20016;-77
2023/03/03 03:25:46;;;;;;;43.67;21.15;;;;;;;-0.13;100.00;102442.81;5092878;28;20027;-77
2023/03/03 03:28:13;;;;;;;43.80;21.02;;;;;;;-0.19;100.00;102442.53;5088561;28;20026;-77
2023/03/03 03:30:38;;;;;;;36.22;16.95;;;;;;;-0.13;100.00;102447.03;5092632;28;20067;-76
2023/03/03 03:33:03;;;;;;;40.97;19.73;;;;;;;-0.19;100.00;102429.69;5087418;28;20043;-76
2023/03/03 03:35:29;;;;;;;40.05;19.80;;;;;;;-0.14;100.00;102456.41;5092101;28;20353;-76
2023/03/03 03:37:54;;;;;;;39.53;19.52;;;;;;;-0.16;100.00;102446.91;5080895;28;20020;-77
2023/03/03 03:40:19;;;;;;;42.90;19.90;;;;;;;-0.17;100.00;102453.69;5090921;28;20039;-77
2023/03/03 03:42:45;;;;;;;39.53;19.25;;;;;;;-0.17;100.00;102445.13;5072022;28;20020;-77
2023/03/03 03:45:14;;;;;;;45.17;21.40;;;;;;;-0.13;100.00;102454.72;5071367;28;20017;-76
2023/03/03 03:47:40;;;;;;;38.63;19.60;;;;;;;-0.19;100.00;102452.78;5081326;28;20464;-76
2023/03/03 03:50:06;;;;;;;40.92;20.17;;;;;;;-0.12;100.00;102462.50;5083461;28;20047;-77
2023/03/03 03:52:31;;;;;;;41.90;20.58;;;;;;;-0.14;100.00;102456.41;5082623;28;20460;-77
2023/03/03 03:54:56;;;;;;;37.92;19.48;;;;;;;-0.14;100.00;102451.28;5078273;28;20099;-77
2023/03/03 03:57:21;;;;;;;39.70;18.60;;;;;;;-0.18;100.00;102446.81;5076965;28;20039;-77
2023/03/03 03:59:48;;;;;;;44.40;20.52;;;;;;;-0.19;100.00;102446.78;5083526;28;20041;-77
2023/03/03 04:02:14;;;;;;;40.53;18.77;;;;;;;-0.16;100.00;102452.03;5082721;28;20042;-77
2023/03/03 04:04:39;;;;;;;40.45;19.85;;;;;;;-0.10;100.00;102459.97;5072110;28;20036;-77
2023/03/03 04:07:04;;;;;;;39.95;18.70;;;;;;;-0.10;100.00;102459.97;5082619;28;20048;-77
2023/03/03 04:09:30;;;;;;;38.67;18.52;;;;;;;-0.14;100.00;102458.09;5083189;28;20028;-77
2023/03/03 04:11:55;;;;;;;39.92;18.55;;;;;;;-0.13;100.00;102462.41;5084386;28;20031;-77
2023/03/03 04:14:20;;;;;;;36.97;18.15;;;;;;;-0.19;100.00;102451.91;5073105;28;20048;-77
2023/03/03 04:16:46;;;;;;;40.63;18.23;;;;;;;-0.24;100.00;102449.97;5080040;28;20056;-77
2023/03/03 04:19:11;;;;;;;44.25;20.02;;;;;;;-0.18;100.00;102463.91;5080924;28;20527;-77
2023/03/03 04:21:39;;;;;;;35.97;18.25;;;;;;;-0.16;100.00;102477.69;5074345;28;20043;-77
2023/03/03 04:24:05;;;;;;;35.38;18.45;;;;;;;-0.23;100.00;102481.59;5073213;28;20493;-77
2023/03/03 04:26:30;;;;;;;34.88;17.05;;;;;;;-0.24;100.00;102474.72;5090223;28;20032;-77
2023/03/03 04:28:57;;;;;;;36.10;16.83;;;;;;;-0.24;100.00;102479.84;5070845;28;20498;-77
2023/03/03 04:31:24;;;;;;;36.03;17.25;;;;;;;-0.34;100.00;102482.81;5074050;28;20089;-77
2023/03/03 04:33:50;;;;;;;33.53;16.73;;;;;;;-0.34;100.00;102480.25;5078825;28;20033;-77
2023/03/03 04:36:15;;;;;;;34.88;17.08;;;;;;;-0.45;100.00;102474.63;5087496;28;20539;-77
2023/03/03 04:38:40;;;;;;;35.55;16.95;;;;;;;-0.43;100.00;102478.09;5088444;28;20028;-77
2023/03/03 04:41:05;;;;;;;35.70;16.88;;;;;;;-0.39;100.00;102482.59;5082379;28;20056;-77
2023/03/03 04:43:31;;;;;;;35.10;16.92;;;;;;;-0.39;100.00;102484.25;5073936;28;20463;-77
2023/03/03 04:45:56;;;;;;;38.63;17.67;;;;;;;-0.38;100.00;102480.91;5073412;28;20498;-77
2023/03/03 04:48:21;;;;;;;35.92;17.67;;;;;;;-0.37;100.00;102478.41;5085557;28;20103;-76
2023/03/03 04:50:47;;;;;;;38.60;18.05;;;;;;;-0.32;100.00;102481.19;5083922;28;20444;-77
2023/03/03 04:53:12;;;;;;;30.77;15.90;;;;;;;-0.35;100.00;102464.00;5079277;28;20111;-76
2023/03/03 04:55:37;;;;;;;35.20;17.10;;;;;;;-0.30;100.00;102479.56;5080241;28;20106;-76
2023/03/03 04:58:04;;;;;;;37.50;17.63;;;;;;;-0.32;100.00;102482.06;5082715;28;20489;-77
2023/03/03 05:00:30;;;;;;;36.63;17.42;;;;;;;-0.29;100.00;102474.53;5087452;28;20052;-77
2023/03/03 05:02:55;;;;;;;36.05;16.67;;;;;;;-0.30;100.00;102480.44;5077907;28;20507;-77
2023/03/03 05:05:21;;;;;;;32.30;17.38;;;;;;;-0.30;100.00;102474.44;5087637;28;20486;-76
2023/03/03 05:07:46;;;;;;;32.83;16.30;;;;;;;-0.44;100.00;102445.63;5082766;28;20063;-77
2023/03/03 05:10:11;;;;;;;37.85;17.75;;;;;;;-0.27;100.00;102482.28;5079813;28;20031;-77
2023/03/03 05:12:36;;;;;;;32.78;16.23;;;;;;;-0.25;100.00;102486.69;5083121;28;20028;-77
2023/03/03 05:15:03;;;;;;;35.05;16.15;;;;;;;-0.20;100.00;102494.56;5077844;28;20021;-77
2023/03/03 05:17:28;;;;;;;37.58;17.08;;;;;;;-0.19;100.00;102488.66;5094362;28;20077;-77
2023/03/03 05:19:56;;;;;;;35.10;16.77;;;;;;;-0.18;100.00;102485.28;5075248;28;20033;-77
2023/03/03 05:22:21;;;;;;;38.25;18.85;;;;;;;-0.18;100.00;102484.41;5094388;28;20446;-77
2023/03/03 05:24:48;;;;;;;40.10;19.45;;;;;;;-0.34;100.00;102468.28;5094873;28;20067;-77
2023/03/03 05:27:14;;;;;;;42.00;18.88;;;;;;;-0.18;100.00;102498.09;5085063;28;20020;-77
2023/03/03 05:29:39;;;;;;;43.60;19.48;;;;;;;-0.33;100.00;102464.94;5094196;28;20482;-77
2023/03/03 05:32:07;;;;;;;40.75;18.90;;;;;;;-0.36;100.00;102466.47;5091017;28;20036;-77
2023/03/03 05:34:32;;;;;;;40.53;18.95;;;;;;;-0.20;100.00;102493.69;5094291;28;20059;-77
2023/03/03 05:36:57;;;;;;;48.97;20.17;;;;;;;-0.25;100.00;102485.81;5094737;28;20063;-77
2023/03/03 05:39:23;;;;;;;39.53;19.13;;;;;;;-0.20;100.00;102493.69;5095137;28;20048;-77
2023/03/03 05:41:48;;;;;;;42.20;19.05;;;;;;;-0.17;100.00;102491.28;5082278;28;20051;-77
2023/03/03 05:44:13;;;;;;;40.75;18.75;;;;;;;-0.15;100.00;102495.69;5077869;28;20489;-77
2023/03/03 05:46:41;;;;;;;38.00;18.58;;;;;;;-0.17;100.00;102486.16;5080404;28;20032;-77
2023/03/03 05:49:07;;;;;;;38.28;17.63;;;;;;;-0.12;100.00;102489.81;5094647;28;20020;-77
2023/03/03 05:51:33;;;;;;;38.85;17.63;;;;;;;-0.08;100.00;102494.28;5094178;28;20379;-77
2023/03/03 05:53:58;;;;;;;41.10;18.58;;;;;;;-0.06;100.00;102505.50;5094724;28;20078;-77
2023/03/03 05:56:24;;;;;;;42.58;17.92;;;;;;;-0.04;100.00;102496.16;5094091;28;20030;-77
2023/03/03 05:58:49;;;;;;;39.13;18.35;;;;;;;-0.04;100.00;102494.47;5094071;28;20432;-77
2023/03/03 06:01:14;;;;;;;35.97;16.27;;;;;;;-0.02;100.00;102494.56;5080822;28;20028;-77
2023/03/03 06:03:40;;;;;;;35.13;16.35;;;;;;;0.03;100.00;102494.75;5087907;28;20016;-77
2023/03/03 06:06:05;;;;;;;34.90;16.58;;;;;;;-0.06;100.00;102479.84;5086354;28;20463;-77
2023/03/03 06:08:31;;;;;;;34.58;16.52;;;;;;;0.07;100.00;102495.00;5078227;28;20112;-77
2023/03/03 06:10:59;;;;;;;38.17;15.82;;;;;;;0.07;100.00;102500.13;5084100;28;20410;-77
2023/03/03 06:13:26;;;;;;;40.15;16.90;;;;;;;0.10;100.00;102510.53;5089115;28;20024;-77
2023/03/03 06:15:51;;;;;;;37.75;16.85;;;;;;;0.14;100.00;102508.97;5094319;28;20119;-78
2023/03/03 06:18:16;;;;;;;38.20;17.20;;;;;;;0.15;100.00;102509.03;5080005;28;20443;-77
2023/03/03 06:20:42;;;;;;;33.97;16.73;;;;;;;0.14;100.00;102501.28;5088674;28;20497;-77
2023/03/03 06:23:07;;;;;;;38.38;17.73;;;;;;;0.18;100.00;102513.44;5079952;28;20028;-77
2023/03/03 06:25:34;;;;;;;38.00;16.83;;;;;;;0.22;100.00;102515.31;5084095;28;20024;-77
2023/03/03 06:28:00;;;;;;;33.90;16.70;;;;;;;0.22;100.00;102512.75;5081446;28;20104;-77
2023/03/03 06:30:27;;;;;;;40.67;18.10;;;;;;;0.16;100.00;102504.78;5081596;28;20111;-77
2023/03/03 06:32:52;;;;;;;40.05;17.75;;;;;;;0.26;100.00;102529.16;5082183;28;20095;-77
2023/03/03 06:35:17;;;;;;;35.78;17.75;;;;;;;0.23;100.00;102530.78;5074221;28;20506;-77
2023/03/03 06:37:43;;;;;;;37.22;17.20;;;;;;;0.14;100.00;102503.84;5090905;28;20024;-77
2023/03/03 06:40:09;;;;;;;37.78;17.15;;;;;;;0.28;100.00;102528.44;5085578;28;20080;-77
2023/03/03 06:42:34;;;;;;;36.75;16.48;;;;;;;0.31;100.00;102535.38;5089304;28;20103;-77
2023/03/03 06:44:59;;;;;;;36.85;17.08;;;;;;;0.34;100.00;102545.78;5079657;28;20024;-77
2023/03/03 06:47:24;;;;;;;35.95;16.50;;;;;;;0.33;100.00;102546.63;5093349;28;20479;-77
2023/03/03 06:49:50;;;;;;;38.33;17.27;;;;;;;0.37;100.00;102543.38;5092250;28;20465;-77
2023/03/03 06:52:22;;;;;;;36.25;16.33;;;;;;;0.37;100.00;102544.25;5080942;28;20027;-77
2023/03/03 06:54:48;;;;;;;37.90;16.92;;;;;;;0.40;100.00;102551.22;5074739;28;20848;-77
2023/03/03 06:57:23;;;;;;;45.45;17.60;;;;;;;0.42;100.00;102553.00;5073529;28;20017;-77
2023/03/03 06:59:53;;;;;;;40.35;18.02;;;;;;;0.45;100.00;102560.84;5072237;28;20037;-77
2023/03/03 07:02:21;;;;;;;37.13;16.75;;;;;;;0.44;100.00;102555.66;5073268;28;20075;-77
2023/03/03 07:04:47;;;;;;;41.33;17.27;;;;;;;0.50;100.00;102561.06;5070516;28;20024;-77
2023/03/03 07:07:19;;;;;;;35.50;15.85;;;;;;;0.55;100.00;102569.84;5072679;28;20016;-77
2023/03/03 07:09:50;;;;;;;35.58;16.45;;;;;;;0.58;100.00;102572.53;5072399;28;20047;-77
2023/03/03 07:12:21;;;;;;;35.35;16.85;;;;;;;0.50;100.00;102548.25;5073385;28;20027;-77
2023/03/03 07:14:54;;;;;;;39.85;18.02;;;;;;;0.59;100.00;102564.06;5072248;28;20110;-77
2023/03/03 07:17:22;;;;;;;37.33;17.38;;;;;;;0.67;100.00;102566.97;5072970;28;20426;-77
2023/03/03 07:19:47;;;;;;;31.52;14.48;;;;;;;0.63;100.00;102555.69;5071775;28;20290;-77
2023/03/03 07:22:13;;;;;;;39.28;16.45;;;;;;;0.69;100.00;102560.22;5072643;28;20032;-77
2023/03/03 07:24:39;;;;;;;36.17;15.60;;;;;;;0.70;100.00;102561.97;5072638;28;20028;-77
2023/03/03 07:27:04;;;;;;;44.47;16.85;;;;;;;0.78;100.00;102570.00;5071755;28;20032;-77
2023/03/03 07:29:30;;;;;;;37.20;16.20;;;;;;;0.78;100.00;102563.16;5072386;28;20027;-77
2023/03/03 07:31:57;;;;;;;38.30;16.33;;;;;;;0.87;100.00;102567.84;5072142;28;20074;-77
2023/03/03 07:34:34;;;;;;;31.83;15.52;;;;;;;0.92;100.00;102571.50;5071779;28;20104;-77
2023/03/03 07:37:12;;;;;;;30.23;14.98;;;;;;;0.91;100.00;102552.63;5069602;28;20082;-77
2023/03/03 07:39:39;;;;;;;35.83;15.70;;;;;;;1.02;100.00;102567.63;5070833;28;20051;-77
2023/03/03 07:42:08;;;;;;;36.20;15.73;;;;;;;1.10;100.00;102579.97;5069452;28;20032;-77
2023/03/03 07:44:35;;;;;;;39.08;16.95;;;;;;;1.16;100.00;102577.69;5072953;28;20035;-77
2023/03/03 07:47:18;;;;;;;36.88;15.88;;;;;;;1.12;100.00;102565.53;5083555;28;20029;-77
2023/03/03 07:49:43;;;;;;;32.58;16.20;;;;;;;1.22;100.00;102583.91;5080016;28;20020;-77
2023/03/03 07:52:24;;;;;;;38.63;18.02;;;;;;;1.17;100.00;102582.00;5092607;28;20034;-77
2023/03/03 07:54:51;;;;;;;38.08;17.27;;;;;;;1.23;100.00;102583.97;5088558;28;20021;-77
2023/03/03 07:57:16;;;;;;;37.08;18.50;;;;;;;1.28;100.00;102586.75;5081456;28;20792;-77
2023/03/03 07:59:47;;;;;;;37.83;17.38;;;;;;;1.30;100.00;102592.81;5077029;28;20087;-77
2023/03/03 08:02:40;;;;;;;40.45;18.92;;;;;;;1.34;100.00;102594.69;5085205;28;20032;-77
2023/03/03 08:05:27;;;;;;;38.22;16.85;;;;;;;1.36;100.00;102595.63;5092348;28;20016;-77
2023/03/03 08:07:57;;;;;;;37.13;16.65;;;;;;;1.33;100.00;102596.38;5092463;28;20043;-76
2023/03/03 08:10:33;;;;;;;37.58;17.08;;;;;;;1.32;100.00;102594.63;5091953;28;20207;-77
2023/03/03 08:13:07;;;;;;;37.95;17.23;;;;;;;1.32;100.00;102604.03;5079750;28;20445;-77
2023/03/03 08:15:36;;;;;;;37.65;17.50;;;;;;;1.29;100.00;102603.91;5078045;28;20024;-77
2023/03/03 08:18:01;;;;;;;37.85;18.17;;;;;;;1.30;100.00;102609.09;5083502;28;20032;-77
2023/03/03 08:20:37;;;;;;;39.40;17.45;;;;;;;1.31;100.00;102607.44;5088129;28;20078;-77
2023/03/03 08:23:03;;;;;;;38.53;17.45;;;;;;;1.31;100.00;102613.44;5076121;28;20375;-77
2023/03/03 08:25:28;;;;;;;34.90;16.77;;;;;;;1.35;100.00;102617.00;5077797;28;20025;-77
2023/03/03 08:27:53;;;;;;;37.28;16.85;;;;;;;1.41;100.00;102617.28;5081741;28;20024;-77
2023/03/03 08:30:19;;;;;;;34.40;16.55;;;;;;;1.39;100.00;102609.50;5072973;28;20036;-77
2023/03/03 08:32:44;;;;;;;37.17;16.08;;;;;;;1.40;100.00;102610.38;5073280;28;20051;-77
2023/03/03 08:35:09;;;;;;;36.05;16.55;;;;;;;1.48;100.00;102616.72;5071260;28;20020;-77
2023/03/03 08:37:35;;;;;;;30.88;15.15;;;;;;;1.54;100.00;102627.25;5073529;28;20027;-76
2023/03/03 08:40:00;;;;;;;33.45;14.23;;;;;;;1.57;100.00;102622.25;5084585;28;20036;-77
2023/03/03 08:42:28;;;;;;;29.83;14.80;;;;;;;1.64;100.00;102626.84;5088918;28;20080;-76
2023/03/03 08:44:54;;;;;;;32.40;15.57;;;;;;;1.72;100.00;102619.41;5074786;28;20395;-76
2023/03/03 08:47:19;;;;;;;30.48;14.30;;;;;;;1.93;100.00;102631.41;5087321;28;20024;-76
2023/03/03 08:49:44;;;;;;;32.10;14.45;;;;;;;2.07;100.00;102619.97;5082498;28;20031;-76
2023/03/03 08:52:10;;;;;;;30.05;14.82;;;;;;;2.18;100.00;102631.56;5087655;28;20131;-76
2023/03/03 08:54:35;;;;;;;30.02;14.55;;;;;;;2.30;100.00;102632.06;5085512;28;20021;-76
2023/03/03 08:57:00;;;;;;;31.55;13.45;;;;;;;2.28;100.00;102627.66;5090341;28;20107;-76
2023/03/03 08:59:26;;;;;;;30.73;15.35;;;;;;;2.29;100.00;102647.44;5075360;28;20076;-76
2023/03/03 09:01:51;;;;;;;31.02;15.48;;;;;;;2.20;100.00;102636.78;5091804;28;20463;-76
2023/03/03 09:04:17;;;;;;;32.60;16.08;;;;;;;2.18;100.00;102641.84;5081125;28;20027;-76
2023/03/03 09:06:42;;;;;;;39.35;16.15;;;;;;;2.13;100.00;102637.38;5078855;28;20027;-78
2023/03/03 09:09:10;;;;;;;39.33;17.15;;;;;;;2.13;100.00;102643.38;5080257;28;20039;-76
2023/03/03 09:11:47;;;;;;;33.20;16.58;;;;;;;2.29;100.00;102648.31;5089719;28;20215;-77
2023/03/03 09:14:14;;;;;;;36.78;16.30;;;;;;;2.31;100.00;102636.38;5089726;28;20044;-77
2023/03/03 09:16:54;;;;;;;35.40;17.23;;;;;;;2.34;100.00;102648.50;5082104;28;20021;-77
2023/03/03 09:19:29;;;;;;;33.08;15.98;;;;;;;2.34;100.00;102651.94;5081803;28;20052;-77
2023/03/03 09:21:57;;;;;;;34.20;16.35;;;;;;;2.40;100.00;102656.47;5088436;28;20028;-78
2023/03/03 09:24:30;;;;;;;32.63;16.10;;;;;;;2.43;100.00;102654.00;5069762;28;20119;-78
2023/03/03 09:26:59;;;;;;;31.73;15.98;;;;;;;2.37;100.00;102651.19;5081327;28;20048;-77
2023/03/03 09:29:30;;;;;;;33.22;15.85;;;;;;;2.35;100.00;102634.78;5066921;28;20043;-78
2023/03/03 09:32:00;;;;;;;30.67;15.32;;;;;;;2.51;100.00;102652.59;5089815;28;20028;-77
2023/03/03 09:34:35;;;;;;;38.15;16.75;;;;;;;2.61;100.00;102655.53;5088231;28;21632;-77
2023/03/03 09:37:00;;;;;;;31.08;15.80;;;;;;;2.61;100.00;102652.94;5079937;28;20024;-77
2023/03/03 09:39:29;;;;;;;29.50;15.18;;;;;;;2.69;100.00;102660.16;5092005;28;20028;-77
2023/03/03 09:42:03;;;;;;;30.63;15.45;;;;;;;2.80;100.00;102663.13;5065885;28;20183;-77
2023/03/03 09:44:48;;;;;;;27.70;13.65;;;;;;;2.95;100.00;102661.13;5070568;28;20025;-77
2023/03/03 09:47:19;;;;;;;29.25;12.55;;;;;;;3.13;100.00;102657.47;5081217;28;20059;-77
2023/03/03 09:49:56;;;;;;;28.30;12.57;;;;;;;3.25;100.00;102660.47;5073336;28;20024;-78
2023/03/03 09:52:37;;;;;;;24.50;13.40;;;;;;;3.24;100.00;102653.59;5070279;28;20488;-77
2023/03/03 09:55:34;;;;;;;28.90;14.23;;;;;;;3.21;100.00;102658.63;5088146;28;20024;-77
2023/03/03 09:58:36;;;;;;;23.58;12.10;;;;;;;3.21;100.00;102666.34;5086110;28;20032;-77
2023/03/03 10:01:07;;;;;;;22.77;11.60;;;;;;;3.12;100.00;102666.91;5094811;28;20044;-77
2023/03/03 10:03:48;;;;;;;24.17;12.07;;;;;;;3.20;100.00;102670.59;5080684;28;20028;-77
2023/03/03 10:06:32;;;;;;;21.67;11.82;;;;;;;3.18;100.00;102671.41;5079337;28;20093;-77
2023/03/03 10:09:18;;;;;;;20.58;11.05;;;;;;;3.13;100.00;102680.66;5063249;28;20496;-77
2023/03/03 10:11:54;;;;;;;24.23;12.27;;;;;;;3.26;100.00;102668.25;5080197;28;20111;-77
2023/03/03 10:14:44;;;;;;;24.52;12.05;;;;;;;3.58;100.00;102665.06;5094755;28;20028;-77
2023/03/03 10:17:19;;;;;;;27.40;12.18;;;;;;;3.83;100.00;102674.53;5092736;28;20023;-77
2023/03/03 10:19:59;;;;;;;21.85;11.90;;;;;;;4.05;98.59;102670.94;5088353;28;20107;-77
2023/03/03 10:22:51;;;;;;;23.45;11.02;;;;;;;4.08;98.83;102658.13;5066475;28;20502;-77
2023/03/03 10:25:41;;;;;;;20.58;10.13;;;;;;;4.22;96.35;102667.22;5078559;28;20032;-77
2023/03/03 10:28:06;;;;;;;20.25;10.63;;;;;;;4.16;95.77;102675.63;5072473;28;20025;-77
2023/03/03 10:30:45;;;;;;;20.02;10.80;;;;;;;4.17;96.62;102664.47;5081228;28;20028;-77
2023/03/03 10:33:25;;;;;;;20.70;12.02;;;;;;;4.23;95.65;102671.53;5084929;28;20087;-77
2023/03/03 10:36:15;;;;;;;18.52;9.80;;;;;;;4.29;95.50;102676.91;5087547;28;20063;-77
2023/03/03 10:39:05;;;;;;;20.70;10.70;;;;;;;4.41;94.96;102674.69;5071647;28;20111;-77
2023/03/03 10:41:42;;;;;;;23.70;10.75;;;;;;;4.37;92.83;102671.97;5093645;28;20039;-77
2023/03/03 10:44:44;;;;;;;17.30;9.48;;;;;;;4.48;94.85;102670.59;5077005;28;20043;-77
2023/03/03 10:47:28;;;;;;;21.02;10.23;;;;;;;4.65;92.70;102668.53;5069288;28;20028;-77
2023/03/03 10:50:20;;;;;;;18.95;10.10;;;;;;;4.66;92.48;102670.28;5080561;28;20479;-77
2023/03/03 10:52:55;;;;;;;19.27;10.25;;;;;;;4.56;91.97;102678.56;5086751;28;20036;-76
2023/03/03 10:55:42;;;;;;;19.77;9.73;;;;;;;4.46;91.55;102667.09;5083913;28;20138;-77
2023/03/03 10:58:44;;;;;;;21.40;10.48;;;;;;;4.47;93.34;102667.13;5079562;28;20111;-77
2023/03/03 11:01:30;;;;;;;18.77;10.70;;;;;;;4.62;91.62;102666.72;5068221;28;20047;-77
2023/03/03 11:04:22;;;;;;;20.58;10.13;;;;;;;4.72;91.67;102661.84;5065872;28;20028;-77
2023/03/03 11:07:02;;;;;;;16.45;9.60;;;;;;;4.77;90.09;102661.13;5084988;28;20249;-77
2023/03/03 11:09:51;;;;;;;16.83;9.73;;;;;;;4.74;90.14;102665.31;5075863;28;20031;-77
2023/03/03 11:12:44;;;;;;;19.98;10.18;;;;;;;4.59;92.13;102650.25;5077412;28;20482;-77
2023/03/03 11:15:51;;;;;;;21.02;10.65;;;;;;;4.73;92.71;102661.88;5075923;28;20549;-77
2023/03/03 11:18:44;;;;;;;19.30;10.32;;;;;;;5.07;90.34;102658.56;5082981;28;20044;-77
2023/03/03 11:21:51;;;;;;;19.73;10.97;;;;;;;5.58;89.36;102645.28;5066799;28;20032;-77